John Quigg — WDB9828 — position and weather

sailwx.info

Track history (hours):
 
Tides and Currents Weather Stations Pressure Air Temp Water Temp Dewpoint Dewpoint Depression Visibility Wind Speed Wind Dir Waves Ship Positions

John Quigg

Owner: Harley Marine Services, Inc, Seattle, WA. More information available from US FCC via Universal Licensing System and Coast Guard Vessel Documentation Center.

Last reported at 2015-Jul-29 10:31 UTC. Time now 2015-Jul-29 11:28 UTC.
Position N 33°46' W 118°16'.

MMSI: 365934954.

Date/timePositionNaut miles runAvg speedWind from/ knotsBaromVisibWave heightAir tempDewpointWater temp
2015-Jul-29 10:31N 33°46' W 118°16'0 0.1
2015-Jul-29 09:33N 33°45' W 118°16'2 1.7
2015-Jul-29 08:33N 33°44' W 118°16'3 0.4
2015-Jul-29 01:06N 33°45' W 118°12'2 2.8
2015-Jul-29 00:30N 33°44' W 118°11'2 1.8
2015-Jul-28 23:14N 33°45' W 118°13'0 0.2
2015-Jul-28 22:32N 33°45' W 118°13'2 0.5
2015-Jul-28 19:21N 33°47' W 118°13'1 0.6
2015-Jul-28 18:32N 33°46' W 118°13'3 3.2
2015-Jul-28 17:33N 33°44' W 118°16'0 0.0
2015-Jul-28 16:33N 33°44' W 118°16'0 0.0
2015-Jul-28 15:32N 33°44' W 118°16'1 1.3
2015-Jul-28 14:32N 33°45' W 118°16'1 0.7
2015-Jul-28 12:20N 33°44' W 118°16'1 1.8
2015-Jul-28 11:33N 33°45' W 118°16'3 0.4
2015-Jul-28 03:25N 33°44' W 118°12'2 2.1
2015-Jul-28 02:33N 33°44' W 118°10'2 0.9
2015-Jul-28 00:08N 33°45' W 118°13'0 0.0
2015-Jul-27 23:33N 33°45' W 118°13'2 0.8
2015-Jul-27 21:33N 33°46' W 118°13'2 0.2
2015-Jul-27 15:14N 33°45' W 118°12'3 2.0
2015-Jul-27 13:30N 33°46' W 118°16'2 0.2
2015-Jul-27 02:23N 33°44' W 118°16'2 2.6
2015-Jul-27 01:28N 33°46' W 118°15'2 1.1
2015-Jul-26 23:17N 33°44' W 118°16'1 2.0
2015-Jul-26 22:33N 33°45' W 118°16'1 1.4
2015-Jul-26 21:33N 33°44' W 118°16'0 0.0
2015-Jul-26 20:26N 33°44' W 118°16'0 0.0
2015-Jul-26 19:32N 33°44' W 118°16'0 0.0
2015-Jul-26 18:24N 33°44' W 118°16'0 0.0
2015-Jul-26 16:19N 33°44' W 118°16'1 1.0
2015-Jul-26 15:22N 33°44' W 118°17'0 0.1
2015-Jul-26 13:04N 33°45' W 118°17'1 0.8
2015-Jul-26 12:07N 33°45' W 118°16'3 4.4
2015-Jul-26 11:30N 33°45' W 118°13'2 1.9
2015-Jul-26 10:33N 33°46' W 118°13'4 3.5
2015-Jul-26 09:24N 33°43' W 118°15'1 1.2
2015-Jul-26 08:33N 33°44' W 118°16'0 0.2
2015-Jul-26 07:33N 33°44' W 118°16'1 0.6
2015-Jul-26 06:32N 33°44' W 118°16'1 0.6
2015-Jul-26 05:33N 33°44' W 118°16'6 5.6
2015-Jul-26 04:32N 33°44' W 118°09'3 3.3
2015-Jul-26 03:32N 33°45' W 118°12'3 3.5
2015-Jul-26 02:33N 33°44' W 118°17'1 0.8
2015-Jul-26 01:33N 33°45' W 118°16'1 1.2
2015-Jul-26 00:33N 33°44' W 118°16'0 0.0
2015-Jul-25 23:33N 33°44' W 118°16'1 1.2
2015-Jul-25 22:33N 33°45' W 118°16'3 2.7
2015-Jul-25 21:33N 33°46' W 118°13'3 2.9
2015-Jul-25 20:23N 33°43' W 118°14'2 1.9
2015-Jul-25 19:33N 33°44' W 118°16'2 1.6
2015-Jul-25 18:33N 33°45' W 118°16'2 1.6
2015-Jul-25 17:33N 33°44' W 118°16'2 0.7
2015-Jul-25 14:31N 33°44' W 118°13'2 2.3
2015-Jul-25 13:31N 33°44' W 118°16'3 3.1
2015-Jul-25 12:33N 33°44' W 118°12'0 0.1
2015-Jul-25 11:22N 33°45' W 118°12'3 3.0
2015-Jul-25 10:25N 33°44' W 118°16'0 0.0
2015-Jul-25 09:31N 33°44' W 118°16'0 0.0
2015-Jul-25 07:30N 33°44' W 118°16'0 0.0
2015-Jul-25 06:18N 33°44' W 118°16'0 0.0
2015-Jul-25 05:28N 33°44' W 118°16'0 0.0
2015-Jul-25 04:21N 33°44' W 118°16'2 1.0
2015-Jul-25 02:33N 33°46' W 118°16'2 1.6
2015-Jul-25 01:32N 33°44' W 118°16'1 0.6
2015-Jul-25 00:32N 33°44' W 118°16'0 0.5
2015-Jul-24 23:31N 33°43' W 118°16'3 0.9
2015-Jul-24 20:28N 33°45' W 118°13'0 0.0
2015-Jul-24 19:29N 33°45' W 118°13'1 1.2
2015-Jul-24 18:33N 33°46' W 118°13'5 1.3
2015-Jul-24 14:23N 33°44' W 118°08'4 1.4
2015-Jul-24 11:19N 33°45' W 118°12'1 0.1
2015-Jul-24 05:21N 33°45' W 118°13'1 1.3
2015-Jul-24 04:33N 33°46' W 118°13'3 0.7
2015-Jul-24 00:33N 33°45' W 118°16'0 0.4
2015-Jul-23 23:32N 33°45' W 118°16'3 0.5
2015-Jul-23 18:19N 33°44' W 118°13'0 0.1
2015-Jul-23 17:32N 33°44' W 118°13'3 0.6
2015-Jul-23 13:28N 33°45' W 118°16'2 0.1
2015-Jul-22 22:06N 33°45' W 118°14'1 0.7
2015-Jul-22 20:33N 33°46' W 118°13'0 0.3
2015-Jul-22 19:33N 33°46' W 118°13'3 3.2
2015-Jul-22 18:32N 33°44' W 118°16'2 0.8
2015-Jul-22 15:30N 33°45' W 118°13'1 1.5
2015-Jul-22 14:31N 33°46' W 118°14'0 0.0
2015-Jul-22 13:33N 33°46' W 118°14'0 0.0
2015-Jul-22 12:33N 33°46' W 118°14'1 1.5
2015-Jul-22 11:33N 33°45' W 118°13'0 0.0
2015-Jul-22 10:33N 33°45' W 118°13'0 0.0
2015-Jul-22 09:33N 33°45' W 118°13'0 0.0
2015-Jul-22 08:33N 33°45' W 118°13'0 0.0
2015-Jul-22 07:33N 33°45' W 118°13'2 2.4
2015-Jul-22 06:33N 33°46' W 118°16'2 0.1
2015-Jul-21 09:27N 33°46' W 118°13'1 0.9
2015-Jul-21 08:31N 33°46' W 118°13'1 0.1
2015-Jul-21 02:27N 33°45' W 118°13'0 0.1
2015-Jul-21 01:32N 33°45' W 118°13'1 0.2
2015-Jul-20 22:27N 33°46' W 118°13'3 0.2
2015-Jul-20 07:13N 33°44' W 118°16'1 0.2
2015-Jul-20 02:31N 33°45' W 118°16'0 0.5
2015-Jul-20 01:33N 33°45' W 118°16'1 0.2
2015-Jul-19 22:15N 33°45' W 118°16'1 0.6
2015-Jul-19 20:25N 33°44' W 118°16'0 0.0
2015-Jul-19 19:21N 33°44' W 118°16'3 1.7
2015-Jul-19 17:32N 33°46' W 118°13'3 1.0
2015-Jul-19 14:33N 33°44' W 118°16'2 0.7
2015-Jul-19 11:33N 33°45' W 118°13'  
Track history (hours):
 
Tides and Currents Weather Stations Pressure Air Temp Water Temp Dewpoint Dewpoint Depression Visibility Wind Speed Wind Dir Waves Ship Positions

John Quigg

Owner: Harley Marine Services, Inc, Seattle, WA. More information available from US FCC via Universal Licensing System and Coast Guard Vessel Documentation Center.

Last reported at 2015-Jul-29 10:31 UTC. Time now 2015-Jul-29 11:28 UTC.
Position N 33°46' W 118°16'.

MMSI: 365934954.

Date/timePositionNaut miles runAvg speedWind from/ knotsBaromVisibWave heightAir tempDewpointWater temp
2015-Jul-29 10:31N 33°46' W 118°16'0 0.1
2015-Jul-29 09:33N 33°45' W 118°16'2 1.7
2015-Jul-29 08:33N 33°44' W 118°16'3 0.4
2015-Jul-29 01:06N 33°45' W 118°12'2 2.8
2015-Jul-29 00:30N 33°44' W 118°11'2 1.8
2015-Jul-28 23:14N 33°45' W 118°13'0 0.2
2015-Jul-28 22:32N 33°45' W 118°13'2 0.5
2015-Jul-28 19:21N 33°47' W 118°13'1 0.6
2015-Jul-28 18:32N 33°46' W 118°13'3 3.2
2015-Jul-28 17:33N 33°44' W 118°16'0 0.0
2015-Jul-28 16:33N 33°44' W 118°16'0 0.0
2015-Jul-28 15:32N 33°44' W 118°16'1 1.3
2015-Jul-28 14:32N 33°45' W 118°16'1 0.7
2015-Jul-28 12:20N 33°44' W 118°16'1 1.8
2015-Jul-28 11:33N 33°45' W 118°16'3 0.4
2015-Jul-28 03:25N 33°44' W 118°12'2 2.1
2015-Jul-28 02:33N 33°44' W 118°10'2 0.9
2015-Jul-28 00:08N 33°45' W 118°13'0 0.0
2015-Jul-27 23:33N 33°45' W 118°13'2 0.8
2015-Jul-27 21:33N 33°46' W 118°13'2 0.2
2015-Jul-27 15:14N 33°45' W 118°12'3 2.0
2015-Jul-27 13:30N 33°46' W 118°16'2 0.2
2015-Jul-27 02:23N 33°44' W 118°16'2 2.6
2015-Jul-27 01:28N 33°46' W 118°15'2 1.1
2015-Jul-26 23:17N 33°44' W 118°16'1 2.0
2015-Jul-26 22:33N 33°45' W 118°16'1 1.4
2015-Jul-26 21:33N 33°44' W 118°16'0 0.0
2015-Jul-26 20:26N 33°44' W 118°16'0 0.0
2015-Jul-26 19:32N 33°44' W 118°16'0 0.0
2015-Jul-26 18:24N 33°44' W 118°16'0 0.0
2015-Jul-26 16:19N 33°44' W 118°16'1 1.0
2015-Jul-26 15:22N 33°44' W 118°17'0 0.1
2015-Jul-26 13:04N 33°45' W 118°17'1 0.8
2015-Jul-26 12:07N 33°45' W 118°16'3 4.4
2015-Jul-26 11:30N 33°45' W 118°13'2 1.9
2015-Jul-26 10:33N 33°46' W 118°13'4 3.5
2015-Jul-26 09:24N 33°43' W 118°15'1 1.2
2015-Jul-26 08:33N 33°44' W 118°16'0 0.2
2015-Jul-26 07:33N 33°44' W 118°16'1 0.6
2015-Jul-26 06:32N 33°44' W 118°16'1 0.6
2015-Jul-26 05:33N 33°44' W 118°16'6 5.6
2015-Jul-26 04:32N 33°44' W 118°09'3 3.3
2015-Jul-26 03:32N 33°45' W 118°12'3 3.5
2015-Jul-26 02:33N 33°44' W 118°17'1 0.8
2015-Jul-26 01:33N 33°45' W 118°16'1 1.2
2015-Jul-26 00:33N 33°44' W 118°16'0 0.0
2015-Jul-25 23:33N 33°44' W 118°16'1 1.2
2015-Jul-25 22:33N 33°45' W 118°16'3 2.7
2015-Jul-25 21:33N 33°46' W 118°13'3 2.9
2015-Jul-25 20:23N 33°43' W 118°14'2 1.9
2015-Jul-25 19:33N 33°44' W 118°16'2 1.6
2015-Jul-25 18:33N 33°45' W 118°16'2 1.6
2015-Jul-25 17:33N 33°44' W 118°16'2 0.7
2015-Jul-25 14:31N 33°44' W 118°13'2 2.3
2015-Jul-25 13:31N 33°44' W 118°16'3 3.1
2015-Jul-25 12:33N 33°44' W 118°12'0 0.1
2015-Jul-25 11:22N 33°45' W 118°12'3 3.0
2015-Jul-25 10:25N 33°44' W 118°16'0 0.0
2015-Jul-25 09:31N 33°44' W 118°16'0 0.0
2015-Jul-25 07:30N 33°44' W 118°16'0 0.0
2015-Jul-25 06:18N 33°44' W 118°16'0 0.0
2015-Jul-25 05:28N 33°44' W 118°16'0 0.0
2015-Jul-25 04:21N 33°44' W 118°16'2 1.0
2015-Jul-25 02:33N 33°46' W 118°16'2 1.6
2015-Jul-25 01:32N 33°44' W 118°16'1 0.6
2015-Jul-25 00:32N 33°44' W 118°16'0 0.5
2015-Jul-24 23:31N 33°43' W 118°16'3 0.9
2015-Jul-24 20:28N 33°45' W 118°13'0 0.0
2015-Jul-24 19:29N 33°45' W 118°13'1 1.2
2015-Jul-24 18:33N 33°46' W 118°13'5 1.3
2015-Jul-24 14:23N 33°44' W 118°08'4 1.4
2015-Jul-24 11:19N 33°45' W 118°12'1 0.1
2015-Jul-24 05:21N 33°45' W 118°13'1 1.3
2015-Jul-24 04:33N 33°46' W 118°13'3 0.7
2015-Jul-24 00:33N 33°45' W 118°16'0 0.4
2015-Jul-23 23:32N 33°45' W 118°16'3 0.5
2015-Jul-23 18:19N 33°44' W 118°13'0 0.1
2015-Jul-23 17:32N 33°44' W 118°13'3 0.6
2015-Jul-23 13:28N 33°45' W 118°16'2 0.1
2015-Jul-22 22:06N 33°45' W 118°14'1 0.7
2015-Jul-22 20:33N 33°46' W 118°13'0 0.3
2015-Jul-22 19:33N 33°46' W 118°13'3 3.2
2015-Jul-22 18:32N 33°44' W 118°16'2 0.8
2015-Jul-22 15:30N 33°45' W 118°13'1 1.5
2015-Jul-22 14:31N 33°46' W 118°14'0 0.0
2015-Jul-22 13:33N 33°46' W 118°14'0 0.0
2015-Jul-22 12:33N 33°46' W 118°14'1 1.5
2015-Jul-22 11:33N 33°45' W 118°13'0 0.0
2015-Jul-22 10:33N 33°45' W 118°13'0 0.0
2015-Jul-22 09:33N 33°45' W 118°13'0 0.0
2015-Jul-22 08:33N 33°45' W 118°13'0 0.0
2015-Jul-22 07:33N 33°45' W 118°13'2 2.4
2015-Jul-22 06:33N 33°46' W 118°16'2 0.1
2015-Jul-21 09:27N 33°46' W 118°13'1 0.9
2015-Jul-21 08:31N 33°46' W 118°13'1 0.1
2015-Jul-21 02:27N 33°45' W 118°13'0 0.1
2015-Jul-21 01:32N 33°45' W 118°13'1 0.2
2015-Jul-20 22:27N 33°46' W 118°13'3 0.2
2015-Jul-20 07:13N 33°44' W 118°16'1 0.2
2015-Jul-20 02:31N 33°45' W 118°16'0 0.5
2015-Jul-20 01:33N 33°45' W 118°16'1 0.2
2015-Jul-19 22:15N 33°45' W 118°16'1 0.6
2015-Jul-19 20:25N 33°44' W 118°16'0 0.0
2015-Jul-19 19:21N 33°44' W 118°16'3 1.7
2015-Jul-19 17:32N 33°46' W 118°13'3 1.0
2015-Jul-19 14:33N 33°44' W 118°16'2 0.7
2015-Jul-19 11:33N 33°45' W 118°13'  

Dump ship's entire track history